California, Missouri
Current Conditions -  °F | °C
As of 12:55 AM on Friday 28 Nov 2014 (Local Time) from KVER Reporting Station
Clear Clear  
Wind Chill: 22°   Ceiling: Unl
Heat Index: 29°   Visibility: 10mi
Dew Point: 24°   Wind: 7mph
Humidity: 81%   Direction: 120°ESE
Pressure: 30.3"   Gusts: NA
Location:  38.63°N, 92.57°W
Report Text: KVER 280655Z AUTO 12006KT 10SM CLR M02/M05 A3030 RMK AO2 T10171046
Loading
Personal Weather Stations






























Interactive Weather Map New forecast layout! Learn more

10-Day Weather Forecast

Advertisements
Track Severe Weather on mobile